sensor_id;sensor_type;location;lat;lon;timestamp;P1;durP1;ratioP1;P2;durP2;ratioP2
73729;SDS011;62036;48.128;16.458;2022-11-06T00:00:03;3.28;;;2.53;;
73729;SDS011;62036;48.128;16.458;2022-11-06T00:02:29;7.68;;;2.97;;
73729;SDS011;62036;48.128;16.458;2022-11-06T00:04:55;6.90;;;3.05;;
73729;SDS011;62036;48.128;16.458;2022-11-06T00:07:45;6.18;;;2.75;;
73729;SDS011;62036;48.128;16.458;2022-11-06T00:10:12;4.93;;;2.88;;
73729;SDS011;62036;48.128;16.458;2022-11-06T00:12:38;3.13;;;1.33;;
73729;SDS011;62036;48.128;16.458;2022-11-06T00:15:05;6.50;;;2.90;;
73729;SDS011;62036;48.128;16.458;2022-11-06T00:17:31;4.72;;;2.50;;
73729;SDS011;62036;48.128;16.458;2022-11-06T00:19:57;7.20;;;3.25;;
73729;SDS011;62036;48.128;16.458;2022-11-06T00:22:23;5.05;;;2.80;;
73729;SDS011;62036;48.128;16.458;2022-11-06T00:24:49;7.22;;;3.13;;
73729;SDS011;62036;48.128;16.458;2022-11-06T00:27:15;5.80;;;3.30;;
73729;SDS011;62036;48.128;16.458;2022-11-06T00:29:41;9.13;;;3.90;;
73729;SDS011;62036;48.128;16.458;2022-11-06T00:32:07;8.43;;;3.35;;
73729;SDS011;62036;48.128;16.458;2022-11-06T00:34:33;5.18;;;2.85;;
73729;SDS011;62036;48.128;16.458;2022-11-06T00:37:01;5.50;;;3.08;;
73729;SDS011;62036;48.128;16.458;2022-11-06T00:39:27;6.13;;;3.25;;
73729;SDS011;62036;48.128;16.458;2022-11-06T00:41:53;5.82;;;2.75;;
73729;SDS011;62036;48.128;16.458;2022-11-06T00:44:19;4.47;;;2.88;;
73729;SDS011;62036;48.128;16.458;2022-11-06T00:46:45;5.97;;;2.60;;
73729;SDS011;62036;48.128;16.458;2022-11-06T00:49:11;7.28;;;3.05;;
73729;SDS011;62036;48.128;16.458;2022-11-06T00:51:37;8.20;;;3.38;;
73729;SDS011;62036;48.128;16.458;2022-11-06T00:54:04;8.07;;;3.70;;
73729;SDS011;62036;48.128;16.458;2022-11-06T00:56:31;7.07;;;3.22;;
73729;SDS011;62036;48.128;16.458;2022-11-06T00:58:58;5.68;;;3.30;;
73729;SDS011;62036;48.128;16.458;2022-11-06T01:01:25;6.80;;;3.65;;
73729;SDS011;62036;48.128;16.458;2022-11-06T01:03:53;5.55;;;3.33;;
73729;SDS011;62036;48.128;16.458;2022-11-06T01:06:20;9.00;;;4.07;;
73729;SDS011;62036;48.128;16.458;2022-11-06T01:08:46;5.18;;;3.55;;
73729;SDS011;62036;48.128;16.458;2022-11-06T01:11:17;5.10;;;3.17;;
73729;SDS011;62036;48.128;16.458;2022-11-06T01:13:44;6.20;;;2.97;;
73729;SDS011;62036;48.128;16.458;2022-11-06T01:16:12;7.03;;;3.55;;
73729;SDS011;62036;48.128;16.458;2022-11-06T01:18:38;9.77;;;3.70;;
73729;SDS011;62036;48.128;16.458;2022-11-06T01:21:12;7.90;;;4.15;;
73729;SDS011;62036;48.128;16.458;2022-11-06T01:23:38;5.45;;;2.70;;
73729;SDS011;62036;48.128;16.458;2022-11-06T01:26:06;7.50;;;3.28;;
73729;SDS011;62036;48.128;16.458;2022-11-06T01:28:32;6.03;;;3.30;;
73729;SDS011;62036;48.128;16.458;2022-11-06T01:31:06;4.35;;;2.80;;
73729;SDS011;62036;48.128;16.458;2022-11-06T01:33:33;6.63;;;3.08;;
73729;SDS011;62036;48.128;16.458;2022-11-06T01:35:59;5.78;;;2.90;;
73729;SDS011;62036;48.128;16.458;2022-11-06T01:38:25;4.85;;;2.97;;
73729;SDS011;62036;48.128;16.458;2022-11-06T01:40:52;8.02;;;3.60;;
73729;SDS011;62036;48.128;16.458;2022-11-06T01:43:22;5.03;;;3.20;;
73729;SDS011;62036;48.128;16.458;2022-11-06T01:45:49;8.55;;;3.78;;
73729;SDS011;62036;48.128;16.458;2022-11-06T01:48:16;7.47;;;4.07;;
73729;SDS011;62036;48.128;16.458;2022-11-06T01:50:43;7.15;;;3.38;;
73729;SDS011;62036;48.128;16.458;2022-11-06T01:53:11;5.93;;;3.53;;
73729;SDS011;62036;48.128;16.458;2022-11-06T01:55:38;5.95;;;3.50;;
73729;SDS011;62036;48.128;16.458;2022-11-06T01:58:06;7.55;;;3.53;;
73729;SDS011;62036;48.128;16.458;2022-11-06T02:00:33;8.32;;;3.90;;
73729;SDS011;62036;48.128;16.458;2022-11-06T02:02:59;8.15;;;3.63;;
73729;SDS011;62036;48.128;16.458;2022-11-06T02:05:25;7.38;;;3.78;;
73729;SDS011;62036;48.128;16.458;2022-11-06T02:07:53;7.03;;;3.50;;
73729;SDS011;62036;48.128;16.458;2022-11-06T02:10:19;9.77;;;4.13;;
73729;SDS011;62036;48.128;16.458;2022-11-06T02:26:05;7.50;;;3.85;;
73729;SDS011;62036;48.128;16.458;2022-11-06T02:28:46;9.00;;;4.03;;
73729;SDS011;62036;48.128;16.458;2022-11-06T02:31:16;8.93;;;4.13;;
73729;SDS011;62036;48.128;16.458;2022-11-06T02:33:46;7.05;;;3.95;;
73729;SDS011;62036;48.128;16.458;2022-11-06T02:36:15;7.18;;;4.00;;
73729;SDS011;62036;48.128;16.458;2022-11-06T02:38:46;8.15;;;3.55;;
73729;SDS011;62036;48.128;16.458;2022-11-06T02:41:15;6.85;;;4.25;;
73729;SDS011;62036;48.128;16.458;2022-11-06T02:43:43;7.65;;;3.15;;
73729;SDS011;62036;48.128;16.458;2022-11-06T02:46:14;8.93;;;3.53;;
73729;SDS011;62036;48.128;16.458;2022-11-06T02:49:27;7.68;;;3.78;;
73729;SDS011;62036;48.128;16.458;2022-11-06T02:51:32;7.45;;;3.85;;
73729;SDS011;62036;48.128;16.458;2022-11-06T02:54:01;6.95;;;3.90;;
73729;SDS011;62036;48.128;16.458;2022-11-06T02:56:30;6.72;;;4.07;;
73729;SDS011;62036;48.128;16.458;2022-11-06T02:59:00;7.70;;;3.35;;
73729;SDS011;62036;48.128;16.458;2022-11-06T03:01:32;7.50;;;3.88;;
73729;SDS011;62036;48.128;16.458;2022-11-06T03:04:03;10.80;;;4.28;;
73729;SDS011;62036;48.128;16.458;2022-11-06T03:06:34;7.30;;;3.38;;
73729;SDS011;62036;48.128;16.458;2022-11-06T03:09:06;8.23;;;3.72;;
73729;SDS011;62036;48.128;16.458;2022-11-06T03:11:34;7.07;;;4.30;;
73729;SDS011;62036;48.128;16.458;2022-11-06T03:24:20;9.60;;;4.03;;
73729;SDS011;62036;48.128;16.458;2022-11-06T03:26:50;9.13;;;4.10;;
73729;SDS011;62036;48.128;16.458;2022-11-06T03:29:18;8.13;;;3.70;;
73729;SDS011;62036;48.128;16.458;2022-11-06T03:31:57;7.55;;;4.38;;
73729;SDS011;62036;48.128;16.458;2022-11-06T03:34:29;10.40;;;5.07;;
73729;SDS011;62036;48.128;16.458;2022-11-06T03:37:04;8.80;;;4.53;;
73729;SDS011;62036;48.128;16.458;2022-11-06T03:39:34;6.47;;;3.92;;
73729;SDS011;62036;48.128;16.458;2022-11-06T03:42:05;8.98;;;3.80;;
73729;SDS011;62036;48.128;16.458;2022-11-06T03:44:31;9.18;;;4.80;;
73729;SDS011;62036;48.128;16.458;2022-11-06T03:47:03;7.20;;;3.90;;
73729;SDS011;62036;48.128;16.458;2022-11-06T03:49:33;10.75;;;4.35;;
73729;SDS011;62036;48.128;16.458;2022-11-06T03:52:02;9.68;;;5.13;;
73729;SDS011;62036;48.128;16.458;2022-11-06T03:54:33;10.10;;;5.10;;
73729;SDS011;62036;48.128;16.458;2022-11-06T03:59:47;9.23;;;4.53;;
73729;SDS011;62036;48.128;16.458;2022-11-06T04:02:15;9.55;;;4.95;;
73729;SDS011;62036;48.128;16.458;2022-11-06T04:04:45;9.07;;;4.68;;
73729;SDS011;62036;48.128;16.458;2022-11-06T04:07:15;8.68;;;4.57;;
73729;SDS011;62036;48.128;16.458;2022-11-06T04:09:52;9.98;;;5.15;;
73729;SDS011;62036;48.128;16.458;2022-11-06T04:12:38;7.80;;;4.50;;
73729;SDS011;62036;48.128;16.458;2022-11-06T04:15:25;14.45;;;5.90;;
73729;SDS011;62036;48.128;16.458;2022-11-06T04:17:51;11.75;;;5.25;;
73729;SDS011;62036;48.128;16.458;2022-11-06T04:20:18;10.52;;;6.07;;
73729;SDS011;62036;48.128;16.458;2022-11-06T04:23:07;13.48;;;6.47;;
73729;SDS011;62036;48.128;16.458;2022-11-06T04:25:39;14.10;;;6.90;;
73729;SDS011;62036;48.128;16.458;2022-11-06T04:28:31;13.57;;;7.25;;
73729;SDS011;62036;48.128;16.458;2022-11-06T04:33:59;11.52;;;6.88;;
73729;SDS011;62036;48.128;16.458;2022-11-06T04:46:52;12.43;;;6.70;;
73729;SDS011;62036;48.128;16.458;2022-11-06T04:49:19;12.70;;;6.45;;
73729;SDS011;62036;48.128;16.458;2022-11-06T04:51:46;12.75;;;6.07;;
73729;SDS011;62036;48.128;16.458;2022-11-06T04:54:12;15.73;;;7.13;;
73729;SDS011;62036;48.128;16.458;2022-11-06T04:56:38;15.80;;;7.60;;
73729;SDS011;62036;48.128;16.458;2022-11-06T04:59:05;14.90;;;7.25;;
73729;SDS011;62036;48.128;16.458;2022-11-06T05:01:31;14.07;;;7.35;;
73729;SDS011;62036;48.128;16.458;2022-11-06T05:03:57;15.05;;;7.63;;
73729;SDS011;62036;48.128;16.458;2022-11-06T05:06:23;17.15;;;8.38;;
73729;SDS011;62036;48.128;16.458;2022-11-06T05:08:49;18.10;;;8.18;;
73729;SDS011;62036;48.128;16.458;2022-11-06T05:11:15;16.35;;;8.70;;
73729;SDS011;62036;48.128;16.458;2022-11-06T05:13:41;15.75;;;8.25;;
73729;SDS011;62036;48.128;16.458;2022-11-06T05:16:07;18.13;;;8.75;;
73729;SDS011;62036;48.128;16.458;2022-11-06T05:18:33;17.85;;;8.38;;
73729;SDS011;62036;48.128;16.458;2022-11-06T05:21:00;17.83;;;8.48;;
73729;SDS011;62036;48.128;16.458;2022-11-06T05:23:45;15.93;;;8.18;;
73729;SDS011;62036;48.128;16.458;2022-11-06T05:26:11;16.70;;;8.25;;
73729;SDS011;62036;48.128;16.458;2022-11-06T05:28:37;17.27;;;8.45;;
73729;SDS011;62036;48.128;16.458;2022-11-06T05:31:03;17.23;;;7.85;;
73729;SDS011;62036;48.128;16.458;2022-11-06T05:33:29;21.23;;;9.13;;
73729;SDS011;62036;48.128;16.458;2022-11-06T05:35:56;15.30;;;8.15;;
73729;SDS011;62036;48.128;16.458;2022-11-06T05:38:25;17.55;;;8.43;;
73729;SDS011;62036;48.128;16.458;2022-11-06T05:40:51;20.15;;;8.35;;
73729;SDS011;62036;48.128;16.458;2022-11-06T05:43:17;19.60;;;8.95;;
73729;SDS011;62036;48.128;16.458;2022-11-06T05:45:43;19.95;;;8.88;;
73729;SDS011;62036;48.128;16.458;2022-11-06T05:48:09;18.42;;;7.97;;
73729;SDS011;62036;48.128;16.458;2022-11-06T05:50:35;18.52;;;8.38;;
73729;SDS011;62036;48.128;16.458;2022-11-06T05:53:01;17.95;;;8.43;;
73729;SDS011;62036;48.128;16.458;2022-11-06T05:55:27;18.45;;;9.10;;
73729;SDS011;62036;48.128;16.458;2022-11-06T05:57:53;20.67;;;9.50;;
73729;SDS011;62036;48.128;16.458;2022-11-06T06:00:19;17.70;;;8.65;;
73729;SDS011;62036;48.128;16.458;2022-11-06T06:02:45;14.68;;;7.43;;
73729;SDS011;62036;48.128;16.458;2022-11-06T06:05:12;17.83;;;8.88;;
73729;SDS011;62036;48.128;16.458;2022-11-06T06:07:38;19.02;;;9.43;;
73729;SDS011;62036;48.128;16.458;2022-11-06T06:10:05;16.60;;;8.48;;
73729;SDS011;62036;48.128;16.458;2022-11-06T06:12:31;17.88;;;8.82;;
73729;SDS011;62036;48.128;16.458;2022-11-06T06:14:57;18.13;;;9.38;;
73729;SDS011;62036;48.128;16.458;2022-11-06T06:17:23;27.75;;;12.60;;
73729;SDS011;62036;48.128;16.458;2022-11-06T06:19:49;18.63;;;9.02;;
73729;SDS011;62036;48.128;16.458;2022-11-06T06:22:15;20.05;;;8.40;;
73729;SDS011;62036;48.128;16.458;2022-11-06T06:24:41;17.02;;;8.38;;
73729;SDS011;62036;48.128;16.458;2022-11-06T06:27:07;15.77;;;8.25;;
73729;SDS011;62036;48.128;16.458;2022-11-06T06:29:33;18.10;;;9.00;;
73729;SDS011;62036;48.128;16.458;2022-11-06T06:31:59;15.88;;;8.00;;
73729;SDS011;62036;48.128;16.458;2022-11-06T06:34:25;18.70;;;8.98;;
73729;SDS011;62036;48.128;16.458;2022-11-06T06:36:52;20.70;;;9.32;;
73729;SDS011;62036;48.128;16.458;2022-11-06T06:39:18;16.73;;;7.97;;
73729;SDS011;62036;48.128;16.458;2022-11-06T06:41:45;17.80;;;7.82;;
73729;SDS011;62036;48.128;16.458;2022-11-06T06:44:11;19.10;;;8.35;;
73729;SDS011;62036;48.128;16.458;2022-11-06T06:46:37;16.15;;;7.10;;
73729;SDS011;62036;48.128;16.458;2022-11-06T06:49:03;20.38;;;8.60;;
73729;SDS011;62036;48.128;16.458;2022-11-06T06:51:29;17.77;;;8.10;;
73729;SDS011;62036;48.128;16.458;2022-11-06T06:53:56;18.90;;;8.57;;
73729;SDS011;62036;48.128;16.458;2022-11-06T06:56:22;16.85;;;8.23;;
73729;SDS011;62036;48.128;16.458;2022-11-06T06:58:48;16.50;;;8.45;;
73729;SDS011;62036;48.128;16.458;2022-11-06T07:01:14;20.05;;;7.40;;
73729;SDS011;62036;48.128;16.458;2022-11-06T07:03:40;15.02;;;7.38;;
73729;SDS011;62036;48.128;16.458;2022-11-06T07:06:06;15.15;;;7.75;;
73729;SDS011;62036;48.128;16.458;2022-11-06T07:08:32;15.80;;;7.00;;
73729;SDS011;62036;48.128;16.458;2022-11-06T07:11:02;17.00;;;7.80;;
73729;SDS011;62036;48.128;16.458;2022-11-06T07:13:28;15.50;;;7.63;;
73729;SDS011;62036;48.128;16.458;2022-11-06T07:15:54;15.07;;;6.65;;
73729;SDS011;62036;48.128;16.458;2022-11-06T07:18:20;19.63;;;7.60;;
73729;SDS011;62036;48.128;16.458;2022-11-06T07:20:46;15.77;;;7.70;;
73729;SDS011;62036;48.128;16.458;2022-11-06T07:23:12;13.85;;;7.38;;
73729;SDS011;62036;48.128;16.458;2022-11-06T07:25:38;15.00;;;7.80;;
73729;SDS011;62036;48.128;16.458;2022-11-06T07:28:05;16.23;;;6.43;;
73729;SDS011;62036;48.128;16.458;2022-11-06T07:30:32;13.25;;;6.88;;
73729;SDS011;62036;48.128;16.458;2022-11-06T07:33:02;14.23;;;6.30;;
73729;SDS011;62036;48.128;16.458;2022-11-06T07:35:28;10.85;;;5.88;;
73729;SDS011;62036;48.128;16.458;2022-11-06T07:37:54;13.05;;;7.28;;
73729;SDS011;62036;48.128;16.458;2022-11-06T07:40:20;13.27;;;6.95;;
73729;SDS011;62036;48.128;16.458;2022-11-06T07:42:47;12.18;;;6.30;;
73729;SDS011;62036;48.128;16.458;2022-11-06T07:45:13;10.20;;;5.82;;
73729;SDS011;62036;48.128;16.458;2022-11-06T07:47:39;11.27;;;5.72;;
73729;SDS011;62036;48.128;16.458;2022-11-06T07:50:05;10.38;;;5.20;;
73729;SDS011;62036;48.128;16.458;2022-11-06T07:52:31;9.98;;;5.45;;
73729;SDS011;62036;48.128;16.458;2022-11-06T07:54:57;11.45;;;4.65;;
73729;SDS011;62036;48.128;16.458;2022-11-06T07:57:23;9.15;;;4.68;;
73729;SDS011;62036;48.128;16.458;2022-11-06T07:59:50;9.68;;;5.25;;
73729;SDS011;62036;48.128;16.458;2022-11-06T08:02:16;9.55;;;5.10;;
73729;SDS011;62036;48.128;16.458;2022-11-06T08:04:42;8.68;;;4.38;;
73729;SDS011;62036;48.128;16.458;2022-11-06T08:07:08;9.88;;;4.50;;
73729;SDS011;62036;48.128;16.458;2022-11-06T08:09:34;10.40;;;5.47;;
73729;SDS011;62036;48.128;16.458;2022-11-06T08:12:00;11.30;;;5.35;;
73729;SDS011;62036;48.128;16.458;2022-11-06T08:14:27;8.05;;;4.85;;
73729;SDS011;62036;48.128;16.458;2022-11-06T08:16:53;10.57;;;5.50;;
73729;SDS011;62036;48.128;16.458;2022-11-06T08:19:19;8.48;;;4.47;;
73729;SDS011;62036;48.128;16.458;2022-11-06T08:21:45;9.15;;;4.78;;
73729;SDS011;62036;48.128;16.458;2022-11-06T08:24:11;10.20;;;4.88;;
73729;SDS011;62036;48.128;16.458;2022-11-06T08:26:37;8.05;;;4.72;;
73729;SDS011;62036;48.128;16.458;2022-11-06T08:29:03;7.60;;;4.55;;
73729;SDS011;62036;48.128;16.458;2022-11-06T08:31:29;6.43;;;3.47;;
73729;SDS011;62036;48.128;16.458;2022-11-06T08:33:55;5.85;;;3.67;;
73729;SDS011;62036;48.128;16.458;2022-11-06T08:36:21;8.32;;;2.88;;
73729;SDS011;62036;48.128;16.458;2022-11-06T08:38:47;4.72;;;2.63;;
73729;SDS011;62036;48.128;16.458;2022-11-06T08:41:13;7.72;;;3.15;;
73729;SDS011;62036;48.128;16.458;2022-11-06T08:43:40;18.08;;;7.38;;
73729;SDS011;62036;48.128;16.458;2022-11-06T08:46:09;8.90;;;4.63;;
73729;SDS011;62036;48.128;16.458;2022-11-06T08:48:35;9.32;;;4.75;;
73729;SDS011;62036;48.128;16.458;2022-11-06T08:51:02;5.18;;;3.05;;
73729;SDS011;62036;48.128;16.458;2022-11-06T08:53:28;5.70;;;2.95;;
73729;SDS011;62036;48.128;16.458;2022-11-06T08:55:54;5.88;;;3.05;;
73729;SDS011;62036;48.128;16.458;2022-11-06T08:58:20;6.18;;;2.80;;
73729;SDS011;62036;48.128;16.458;2022-11-06T09:00:46;5.40;;;2.55;;
73729;SDS011;62036;48.128;16.458;2022-11-06T09:03:13;4.20;;;2.08;;
73729;SDS011;62036;48.128;16.458;2022-11-06T09:05:43;6.63;;;2.92;;
73729;SDS011;62036;48.128;16.458;2022-11-06T09:08:09;3.28;;;1.80;;
73729;SDS011;62036;48.128;16.458;2022-11-06T09:10:36;3.78;;;1.65;;
73729;SDS011;62036;48.128;16.458;2022-11-06T09:13:02;6.85;;;1.77;;
73729;SDS011;62036;48.128;16.458;2022-11-06T09:15:28;5.07;;;2.40;;
73729;SDS011;62036;48.128;16.458;2022-11-06T09:17:54;4.18;;;2.00;;
73729;SDS011;62036;48.128;16.458;2022-11-06T09:20:21;3.25;;;1.90;;
73729;SDS011;62036;48.128;16.458;2022-11-06T09:22:48;5.70;;;2.47;;
73729;SDS011;62036;48.128;16.458;2022-11-06T09:25:14;4.80;;;1.92;;
73729;SDS011;62036;48.128;16.458;2022-11-06T09:27:44;4.10;;;1.80;;
73729;SDS011;62036;48.128;16.458;2022-11-06T09:30:11;4.60;;;2.15;;
73729;SDS011;62036;48.128;16.458;2022-11-06T09:32:37;5.07;;;1.98;;
73729;SDS011;62036;48.128;16.458;2022-11-06T09:35:04;5.00;;;2.00;;
73729;SDS011;62036;48.128;16.458;2022-11-06T09:37:30;3.95;;;2.28;;
73729;SDS011;62036;48.128;16.458;2022-11-06T09:39:56;6.50;;;1.92;;
73729;SDS011;62036;48.128;16.458;2022-11-06T09:42:35;7.38;;;2.42;;
73729;SDS011;62036;48.128;16.458;2022-11-06T09:45:10;4.53;;;1.92;;
73729;SDS011;62036;48.128;16.458;2022-11-06T09:47:38;3.58;;;2.50;;
73729;SDS011;62036;48.128;16.458;2022-11-06T09:50:06;5.75;;;2.38;;
73729;SDS011;62036;48.128;16.458;2022-11-06T09:52:37;8.27;;;2.40;;
73729;SDS011;62036;48.128;16.458;2022-11-06T09:55:09;4.85;;;2.25;;
73729;SDS011;62036;48.128;16.458;2022-11-06T09:57:49;5.15;;;2.42;;
73729;SDS011;62036;48.128;16.458;2022-11-06T10:00:15;4.55;;;2.00;;
73729;SDS011;62036;48.128;16.458;2022-11-06T10:07:54;5.88;;;2.47;;
73729;SDS011;62036;48.128;16.458;2022-11-06T10:10:22;3.50;;;1.80;;
73729;SDS011;62036;48.128;16.458;2022-11-06T10:15:26;3.40;;;1.45;;
73729;SDS011;62036;48.128;16.458;2022-11-06T10:18:00;3.33;;;1.40;;
73729;SDS011;62036;48.128;16.458;2022-11-06T10:20:31;5.60;;;1.27;;
73729;SDS011;62036;48.128;16.458;2022-11-06T10:23:03;6.03;;;2.03;;
73729;SDS011;62036;48.128;16.458;2022-11-06T10:25:38;3.13;;;2.13;;
73729;SDS011;62036;48.128;16.458;2022-11-06T10:28:10;3.90;;;2.15;;
73729;SDS011;62036;48.128;16.458;2022-11-06T10:30:41;10.32;;;2.85;;
73729;SDS011;62036;48.128;16.458;2022-11-06T10:38:11;4.40;;;2.08;;
73729;SDS011;62036;48.128;16.458;2022-11-06T10:40:38;5.85;;;2.50;;
73729;SDS011;62036;48.128;16.458;2022-11-06T10:45:40;4.78;;;2.22;;
73729;SDS011;62036;48.128;16.458;2022-11-06T10:58:41;4.00;;;2.00;;
73729;SDS011;62036;48.128;16.458;2022-11-06T11:01:08;5.13;;;2.00;;
73729;SDS011;62036;48.128;16.458;2022-11-06T11:03:42;3.55;;;2.13;;
73729;SDS011;62036;48.128;16.458;2022-11-06T11:06:10;5.85;;;2.58;;
73729;SDS011;62036;48.128;16.458;2022-11-06T11:13:49;3.72;;;2.28;;
73729;SDS011;62036;48.128;16.458;2022-11-06T11:18:42;6.00;;;2.17;;
73729;SDS011;62036;48.128;16.458;2022-11-06T11:21:30;4.45;;;1.75;;
73729;SDS011;62036;48.128;16.458;2022-11-06T11:24:10;3.17;;;1.77;;
73729;SDS011;62036;48.128;16.458;2022-11-06T11:26:37;4.57;;;2.00;;
73729;SDS011;62036;48.128;16.458;2022-11-06T11:29:14;3.88;;;1.80;;
73729;SDS011;62036;48.128;16.458;2022-11-06T11:31:43;3.22;;;1.92;;
73729;SDS011;62036;48.128;16.458;2022-11-06T11:34:15;4.88;;;2.30;;
73729;SDS011;62036;48.128;16.458;2022-11-06T11:39:17;8.07;;;2.50;;
73729;SDS011;62036;48.128;16.458;2022-11-06T11:41:44;8.88;;;2.80;;
73729;SDS011;62036;48.128;16.458;2022-11-06T11:46:49;3.03;;;1.80;;
73729;SDS011;62036;48.128;16.458;2022-11-06T11:49:29;4.85;;;1.85;;
73729;SDS011;62036;48.128;16.458;2022-11-06T11:51:55;6.20;;;1.63;;
73729;SDS011;62036;48.128;16.458;2022-11-06T11:54:23;2.90;;;1.75;;
73729;SDS011;62036;48.128;16.458;2022-11-06T11:56:54;5.20;;;1.75;;
73729;SDS011;62036;48.128;16.458;2022-11-06T11:59:21;6.45;;;2.10;;
73729;SDS011;62036;48.128;16.458;2022-11-06T12:01:48;7.35;;;2.03;;
73729;SDS011;62036;48.128;16.458;2022-11-06T12:06:50;3.63;;;2.05;;
73729;SDS011;62036;48.128;16.458;2022-11-06T12:09:17;4.78;;;1.70;;
73729;SDS011;62036;48.128;16.458;2022-11-06T12:11:43;3.30;;;1.88;;
73729;SDS011;62036;48.128;16.458;2022-11-06T12:14:33;2.63;;;1.23;;
73729;SDS011;62036;48.128;16.458;2022-11-06T12:17:04;4.40;;;1.75;;
73729;SDS011;62036;48.128;16.458;2022-11-06T12:19:33;3.70;;;1.45;;
73729;SDS011;62036;48.128;16.458;2022-11-06T12:22:02;3.00;;;1.40;;
73729;SDS011;62036;48.128;16.458;2022-11-06T12:24:32;3.15;;;1.58;;
73729;SDS011;62036;48.128;16.458;2022-11-06T12:27:05;3.28;;;1.13;;
73729;SDS011;62036;48.128;16.458;2022-11-06T12:29:40;4.18;;;1.50;;
73729;SDS011;62036;48.128;16.458;2022-11-06T12:32:13;5.68;;;1.63;;
73729;SDS011;62036;48.128;16.458;2022-11-06T12:37:20;4.57;;;1.73;;
73729;SDS011;62036;48.128;16.458;2022-11-06T12:39:53;3.03;;;1.40;;
73729;SDS011;62036;48.128;16.458;2022-11-06T12:42:20;4.10;;;1.48;;
73729;SDS011;62036;48.128;16.458;2022-11-06T12:44:47;1.90;;;1.15;;
73729;SDS011;62036;48.128;16.458;2022-11-06T12:47:16;2.20;;;1.20;;
73729;SDS011;62036;48.128;16.458;2022-11-06T12:49:54;3.05;;;1.48;;
73729;SDS011;62036;48.128;16.458;2022-11-06T13:00:11;2.13;;;1.13;;
73729;SDS011;62036;48.128;16.458;2022-11-06T13:05:09;3.13;;;1.20;;
73729;SDS011;62036;48.128;16.458;2022-11-06T13:12:42;2.63;;;1.40;;
73729;SDS011;62036;48.128;16.458;2022-11-06T13:15:26;3.70;;;1.45;;
73729;SDS011;62036;48.128;16.458;2022-11-06T13:18:06;3.05;;;1.52;;
73729;SDS011;62036;48.128;16.458;2022-11-06T13:23:15;3.80;;;1.50;;
73729;SDS011;62036;48.128;16.458;2022-11-06T13:25:48;4.82;;;1.30;;
73729;SDS011;62036;48.128;16.458;2022-11-06T13:30:41;4.80;;;1.52;;
73729;SDS011;62036;48.128;16.458;2022-11-06T13:33:16;5.68;;;2.13;;
73729;SDS011;62036;48.128;16.458;2022-11-06T13:35:45;3.05;;;1.60;;
73729;SDS011;62036;48.128;16.458;2022-11-06T13:38:16;4.55;;;2.15;;
73729;SDS011;62036;48.128;16.458;2022-11-06T13:40:44;3.97;;;1.48;;
73729;SDS011;62036;48.128;16.458;2022-11-06T13:43:13;3.83;;;1.65;;
73729;SDS011;62036;48.128;16.458;2022-11-06T13:51:23;4.03;;;1.98;;
73729;SDS011;62036;48.128;16.458;2022-11-06T14:04:21;3.47;;;1.90;;
73729;SDS011;62036;48.128;16.458;2022-11-06T14:06:53;2.28;;;1.35;;
73729;SDS011;62036;48.128;16.458;2022-11-06T14:09:21;2.55;;;1.40;;
73729;SDS011;62036;48.128;16.458;2022-11-06T14:11:56;6.75;;;1.75;;
73729;SDS011;62036;48.128;16.458;2022-11-06T14:14:24;4.88;;;1.30;;
73729;SDS011;62036;48.128;16.458;2022-11-06T14:19:35;3.55;;;1.33;;
73729;SDS011;62036;48.128;16.458;2022-11-06T14:24:37;3.63;;;1.50;;
73729;SDS011;62036;48.128;16.458;2022-11-06T14:27:05;6.72;;;1.67;;
73729;SDS011;62036;48.128;16.458;2022-11-06T14:34:29;5.25;;;1.73;;
73729;SDS011;62036;48.128;16.458;2022-11-06T14:36:55;2.83;;;1.42;;
73729;SDS011;62036;48.128;16.458;2022-11-06T14:42:29;4.72;;;1.55;;
73729;SDS011;62036;48.128;16.458;2022-11-06T14:47:36;2.88;;;1.60;;
73729;SDS011;62036;48.128;16.458;2022-11-06T14:50:07;3.53;;;1.60;;
73729;SDS011;62036;48.128;16.458;2022-11-06T14:52:41;4.25;;;1.23;;
73729;SDS011;62036;48.128;16.458;2022-11-06T14:55:17;3.03;;;1.52;;
73729;SDS011;62036;48.128;16.458;2022-11-06T14:57:48;4.57;;;1.27;;
73729;SDS011;62036;48.128;16.458;2022-11-06T15:02:58;1.58;;;1.08;;
73729;SDS011;62036;48.128;16.458;2022-11-06T15:05:25;2.45;;;1.10;;
73729;SDS011;62036;48.128;16.458;2022-11-06T15:07:53;2.17;;;1.35;;
73729;SDS011;62036;48.128;16.458;2022-11-06T15:10:54;3.00;;;1.45;;
73729;SDS011;62036;48.128;16.458;2022-11-06T15:15:43;3.90;;;1.50;;
73729;SDS011;62036;48.128;16.458;2022-11-06T15:18:10;2.97;;;1.45;;
73729;SDS011;62036;48.128;16.458;2022-11-06T15:20:37;4.45;;;1.60;;
73729;SDS011;62036;48.128;16.458;2022-11-06T15:23:14;5.72;;;2.00;;
73729;SDS011;62036;48.128;16.458;2022-11-06T15:25:49;3.20;;;1.67;;
73729;SDS011;62036;48.128;16.458;2022-11-06T15:28:17;3.15;;;1.42;;
73729;SDS011;62036;48.128;16.458;2022-11-06T15:31:18;3.00;;;1.65;;
73729;SDS011;62036;48.128;16.458;2022-11-06T15:36:18;4.20;;;1.40;;
73729;SDS011;62036;48.128;16.458;2022-11-06T15:38:46;3.78;;;1.58;;
73729;SDS011;62036;48.128;16.458;2022-11-06T15:41:13;3.13;;;1.77;;
73729;SDS011;62036;48.128;16.458;2022-11-06T15:43:42;3.85;;;1.50;;
73729;SDS011;62036;48.128;16.458;2022-11-06T15:48:45;5.28;;;2.95;;
73729;SDS011;62036;48.128;16.458;2022-11-06T15:51:26;8.80;;;4.00;;
73729;SDS011;62036;48.128;16.458;2022-11-06T15:53:52;7.18;;;3.63;;
73729;SDS011;62036;48.128;16.458;2022-11-06T15:56:23;9.57;;;4.05;;
73729;SDS011;62036;48.128;16.458;2022-11-06T15:59:03;6.35;;;3.25;;
73729;SDS011;62036;48.128;16.458;2022-11-06T16:01:32;7.20;;;3.85;;
73729;SDS011;62036;48.128;16.458;2022-11-06T16:03:58;8.82;;;4.45;;
73729;SDS011;62036;48.128;16.458;2022-11-06T16:06:27;10.10;;;5.20;;
73729;SDS011;62036;48.128;16.458;2022-11-06T16:08:53;20.52;;;12.05;;
73729;SDS011;62036;48.128;16.458;2022-11-06T16:11:20;18.58;;;10.85;;
73729;SDS011;62036;48.128;16.458;2022-11-06T16:13:46;17.60;;;10.18;;
73729;SDS011;62036;48.128;16.458;2022-11-06T16:22:14;12.70;;;6.60;;
73729;SDS011;62036;48.128;16.458;2022-11-06T16:24:40;13.27;;;6.57;;
73729;SDS011;62036;48.128;16.458;2022-11-06T16:27:08;16.60;;;7.28;;
73729;SDS011;62036;48.128;16.458;2022-11-06T16:29:34;19.70;;;8.55;;
73729;SDS011;62036;48.128;16.458;2022-11-06T16:32:05;21.85;;;9.13;;
73729;SDS011;62036;48.128;16.458;2022-11-06T16:34:36;20.55;;;8.25;;
73729;SDS011;62036;48.128;16.458;2022-11-06T16:49:36;7.85;;;3.63;;
73729;SDS011;62036;48.128;16.458;2022-11-06T16:54:52;6.13;;;3.65;;
73729;SDS011;62036;48.128;16.458;2022-11-06T16:57:19;4.43;;;3.20;;
73729;SDS011;62036;48.128;16.458;2022-11-06T17:00:04;6.40;;;3.42;;
73729;SDS011;62036;48.128;16.458;2022-11-06T17:02:36;5.30;;;2.80;;
73729;SDS011;62036;48.128;16.458;2022-11-06T17:05:06;5.00;;;3.25;;
73729;SDS011;62036;48.128;16.458;2022-11-06T17:07:33;5.97;;;2.92;;
73729;SDS011;62036;48.128;16.458;2022-11-06T17:12:43;4.28;;;2.05;;
73729;SDS011;62036;48.128;16.458;2022-11-06T17:15:09;4.53;;;2.63;;
73729;SDS011;62036;48.128;16.458;2022-11-06T17:17:35;4.30;;;2.50;;
73729;SDS011;62036;48.128;16.458;2022-11-06T17:20:03;4.63;;;2.45;;
73729;SDS011;62036;48.128;16.458;2022-11-06T17:22:29;5.38;;;2.80;;
73729;SDS011;62036;48.128;16.458;2022-11-06T17:24:55;3.65;;;2.60;;
73729;SDS011;62036;48.128;16.458;2022-11-06T17:27:21;6.70;;;3.22;;
73729;SDS011;62036;48.128;16.458;2022-11-06T17:29:49;4.28;;;2.80;;